createdAt,value
2023-01-19T00:00:08.274Z,97835.69
2023-01-19T00:01:09.751Z,97834.75
2023-01-19T00:02:11.248Z,97835.16
2023-01-19T00:03:12.749Z,97838.13
2023-01-19T00:04:14.267Z,97834.28
2023-01-19T00:05:16.336Z,97830.06
2023-01-19T00:06:18.190Z,97829.00
2023-01-19T00:07:19.675Z,97831.59
2023-01-19T00:08:21.218Z,97833.78
2023-01-19T00:09:22.702Z,97843.91
2023-01-19T00:10:24.194Z,97839.22
2023-01-19T00:11:25.686Z,97833.34
2023-01-19T00:12:27.211Z,97834.50
2023-01-19T00:13:28.730Z,97825.88
2023-01-19T00:14:30.692Z,97828.25
2023-01-19T00:15:32.194Z,97826.41
2023-01-19T00:16:33.736Z,97831.69
2023-01-19T00:17:35.431Z,97832.53
2023-01-19T00:18:36.955Z,97825.16
2023-01-19T00:19:38.471Z,97826.19
2023-01-19T00:20:40.632Z,97831.19
2023-01-19T00:21:42.232Z,97832.63
2023-01-19T00:22:43.746Z,97834.97
2023-01-19T00:23:45.538Z,97827.09
2023-01-19T00:24:47.044Z,97823.59
2023-01-19T00:25:48.593Z,97822.41
2023-01-19T00:26:50.115Z,97824.41
2023-01-19T00:27:51.600Z,97823.69
2023-01-19T00:28:53.212Z,97819.56
2023-01-19T00:29:54.742Z,97822.03
2023-01-19T00:30:56.253Z,97821.94
2023-01-19T00:31:57.791Z,97825.47
2023-01-19T00:32:59.702Z,97822.03
2023-01-19T00:34:01.858Z,97823.59
2023-01-19T00:35:03.419Z,97821.47
2023-01-19T00:36:05.302Z,97821.38
2023-01-19T00:37:07.436Z,97818.78
2023-01-19T00:38:10.053Z,97817.47
2023-01-19T00:39:11.552Z,97811.25
2023-01-19T00:40:13.570Z,97813.50
2023-01-19T00:41:15.110Z,97811.72
2023-01-19T00:42:16.716Z,97821.00
2023-01-19T00:43:18.241Z,97819.38
2023-01-19T00:44:19.740Z,97815.88
2023-01-19T00:45:23.517Z,97816.69
2023-01-19T00:46:25.009Z,97807.69
2023-01-19T00:47:26.474Z,97814.31
2023-01-19T00:48:27.980Z,97812.22
2023-01-19T00:49:29.488Z,97818.00
2023-01-19T00:50:32.108Z,97821.09
2023-01-19T00:51:33.755Z,97819.22
2023-01-19T00:52:35.223Z,97817.22
2023-01-19T00:53:36.780Z,97822.19
2023-01-19T00:54:38.292Z,97830.56
2023-01-19T00:55:39.833Z,97828.00
2023-01-19T00:56:41.347Z,97825.19
2023-01-19T00:57:43.511Z,97833.16
2023-01-19T00:58:44.995Z,97828.94
2023-01-19T00:59:46.504Z,97831.84
2023-01-19T01:00:48.148Z,97830.97
2023-01-19T01:01:49.803Z,97834.91
2023-01-19T01:02:53.029Z,97828.31
2023-01-19T01:03:54.579Z,97826.44
2023-01-19T01:04:56.062Z,97821.16
2023-01-19T01:05:57.558Z,97819.13
2023-01-19T01:06:59.057Z,97808.69
2023-01-19T01:08:00.562Z,97813.97
2023-01-19T01:09:02.110Z,97816.69
2023-01-19T01:10:03.757Z,97819.88
2023-01-19T01:11:05.323Z,97811.19
2023-01-19T01:12:07.020Z,97813.63
2023-01-19T01:13:20.267Z,97821.31
2023-01-19T01:14:23.136Z,97809.72
2023-01-19T01:15:25.778Z,97804.97
2023-01-19T01:16:27.344Z,97805.53
2023-01-19T01:17:28.883Z,97810.81
2023-01-19T01:18:30.399Z,97808.00
2023-01-19T01:19:31.963Z,97813.47
2023-01-19T01:20:33.588Z,97811.59
2023-01-19T01:21:35.160Z,97821.63
2023-01-19T01:22:36.627Z,97814.56
2023-01-19T01:23:38.050Z,97822.16
2023-01-19T01:24:39.641Z,97817.56
2023-01-19T01:25:41.186Z,97820.06
2023-01-19T01:26:42.703Z,97820.06
2023-01-19T01:27:44.575Z,97826.78
2023-01-19T01:28:46.091Z,97832.91
2023-01-19T01:29:48.290Z,97832.78
2023-01-19T01:30:54.242Z,97834.75
2023-01-19T01:31:55.817Z,97834.50
2023-01-19T01:32:57.396Z,97837.81
2023-01-19T01:33:58.919Z,97841.66
2023-01-19T01:35:00.432Z,97837.66
2023-01-19T01:36:01.955Z,97845.25
2023-01-19T01:37:03.446Z,97837.56
2023-01-19T01:38:05.267Z,97832.69
2023-01-19T01:39:06.756Z,97830.22
2023-01-19T01:40:11.475Z,97837.88
2023-01-19T01:41:13.316Z,97834.25
2023-01-19T01:42:19.130Z,97834.75
2023-01-19T01:43:20.643Z,97837.16
2023-01-19T01:44:45.276Z,97836.84
2023-01-19T01:45:47.331Z,97833.19
2023-01-19T01:46:48.996Z,97836.72
2023-01-19T01:47:52.621Z,97836.50
2023-01-19T01:49:04.037Z,97837.09
2023-01-19T01:50:12.015Z,97843.84
2023-01-19T01:51:19.755Z,97843.63
2023-01-19T01:52:25.278Z,97839.16
2023-01-19T01:53:29.612Z,97841.56
2023-01-19T01:54:33.297Z,97849.41
2023-01-19T01:55:46.224Z,97845.06
2023-01-19T01:56:51.280Z,97848.25
2023-01-19T01:58:03.506Z,97837.56
2023-01-19T01:59:14.768Z,97837.47
2023-01-19T02:00:16.707Z,97839.13
2023-01-19T02:01:18.323Z,97836.31
2023-01-19T02:02:23.367Z,97841.41
2023-01-19T02:03:26.117Z,97834.34
2023-01-19T02:04:29.390Z,97839.28
2023-01-19T02:05:34.667Z,97834.09
2023-01-19T02:06:36.214Z,97831.28
2023-01-19T02:07:53.485Z,97835.56
2023-01-19T02:09:02.114Z,97833.78
2023-01-19T02:10:03.910Z,97839.59
2023-01-19T02:11:06.631Z,97837.81
2023-01-19T02:12:08.299Z,97837.81
2023-01-19T02:13:10.256Z,97835.34
2023-01-19T02:14:11.796Z,97842.28
2023-01-19T02:15:20.154Z,97839.81
2023-01-19T02:16:21.692Z,97843.44
2023-01-19T02:17:23.540Z,97843.06
2023-01-19T02:18:28.441Z,97845.41
2023-01-19T02:19:38.657Z,97845.94
2023-01-19T02:20:44.990Z,97849.56
2023-01-19T02:22:06.696Z,97852.38
2023-01-19T02:23:16.780Z,97855.22
2023-01-19T02:24:18.922Z,97853.97
2023-01-19T02:25:20.632Z,97855.38
2023-01-19T02:26:25.184Z,97856.41
2023-01-19T02:27:26.869Z,97851.53
2023-01-19T02:28:29.650Z,97848.94
2023-01-19T02:29:32.772Z,97853.09
2023-01-19T02:30:38.439Z,97855.38
2023-01-19T02:31:40.966Z,97859.28
2023-01-19T02:32:43.068Z,97857.50
2023-01-19T02:33:44.627Z,97859.00
2023-01-19T02:34:46.227Z,97864.97
2023-01-19T02:35:51.117Z,97865.59
2023-01-19T02:36:54.379Z,97888.81
2023-01-19T02:37:57.437Z,97888.19
2023-01-19T02:39:01.407Z,97880.53
2023-01-19T02:40:05.779Z,97872.34
2023-01-19T02:41:11.176Z,97881.53
2023-01-19T02:42:18.197Z,97872.75
2023-01-19T02:43:20.189Z,97879.34
2023-01-19T02:44:24.077Z,97866.41
2023-01-19T02:45:26.908Z,97872.41
2023-01-19T02:46:28.516Z,97880.19
2023-01-19T02:47:37.802Z,97874.88
2023-01-19T02:48:39.444Z,97874.69
2023-01-19T02:49:41.763Z,97877.06
2023-01-19T02:50:49.797Z,97880.59
2023-01-19T02:51:51.396Z,97874.69
2023-01-19T02:52:58.842Z,97884.22
2023-01-19T02:54:38.957Z,97885.78
2023-01-19T02:55:46.141Z,97885.56
2023-01-19T02:57:09.254Z,97890.13
2023-01-19T02:58:17.935Z,97883.19
2023-01-19T02:59:31.460Z,97888.13
2023-01-19T03:00:51.635Z,97885.47
2023-01-19T03:02:05.466Z,97881.94
2023-01-19T03:03:15.635Z,97881.94
2023-01-19T03:04:27.870Z,97881.78
2023-01-19T03:05:51.861Z,97884.63
2023-01-19T03:07:02.549Z,97887.53
2023-01-19T03:08:10.903Z,97888.47
2023-01-19T03:09:23.486Z,97885.25
2023-01-19T03:10:52.858Z,97884.13
2023-01-19T03:12:14.830Z,97894.09
2023-01-19T03:13:41.007Z,97885.94
2023-01-19T03:14:47.707Z,97896.31
2023-01-19T03:16:14.412Z,97889.25
2023-01-19T03:17:17.878Z,97887.81
2023-01-19T03:18:23.491Z,97893.00
2023-01-19T03:19:39.476Z,97892.38
2023-01-19T03:20:43.875Z,97896.41
2023-01-19T03:21:50.591Z,97900.75
2023-01-19T03:22:59.347Z,97897.03
2023-01-19T03:24:04.229Z,97899.31
2023-01-19T03:25:06.853Z,97901.56
2023-01-19T03:26:12.978Z,97905.31
2023-01-19T03:27:20.442Z,97903.25
2023-01-19T03:28:25.175Z,97902.94
2023-01-19T03:29:30.711Z,97908.09
2023-01-19T03:30:36.277Z,97912.13
2023-01-19T03:31:39.539Z,97905.09
2023-01-19T03:32:56.136Z,97904.06
2023-01-19T03:34:02.296Z,97913.59
2023-01-19T03:35:10.134Z,97912.25
2023-01-19T03:36:19.679Z,97907.59
2023-01-19T03:37:22.555Z,97920.44
2023-01-19T03:38:27.069Z,97915.88
2023-01-19T03:39:29.019Z,97914.53
2023-01-19T03:40:33.242Z,97915.75
2023-01-19T03:41:37.329Z,97909.31
2023-01-19T03:42:40.705Z,97909.00
2023-01-19T03:43:44.136Z,97921.75
2023-01-19T03:44:46.486Z,97916.34
2023-01-19T03:45:48.427Z,97914.50
2023-01-19T03:46:50.786Z,97929.81
2023-01-19T03:47:52.411Z,97929.50
2023-01-19T03:48:54.306Z,97935.31
2023-01-19T03:49:56.685Z,97937.91
2023-01-19T03:51:02.417Z,97944.63
2023-01-19T03:52:04.492Z,97934.25
2023-01-19T03:53:09.709Z,97941.09
2023-01-19T03:54:11.465Z,97936.53
2023-01-19T03:55:13.003Z,97944.22
2023-01-19T03:56:20.327Z,97939.25
2023-01-19T03:57:21.897Z,97944.53
2023-01-19T03:58:23.374Z,97947.03
2023-01-19T03:59:24.877Z,97942.75
2023-01-19T04:00:26.401Z,97945.25
2023-01-19T04:01:28.420Z,97945.97
2023-01-19T04:02:30.051Z,97945.88
2023-01-19T04:03:31.572Z,97945.03
2023-01-19T04:04:33.077Z,97940.69
2023-01-19T04:05:34.606Z,97944.91
2023-01-19T04:06:36.142Z,97952.69
2023-01-19T04:07:37.666Z,97953.72
2023-01-19T04:08:39.177Z,97950.31
2023-01-19T04:09:41.084Z,97955.50
2023-01-19T04:10:42.607Z,97958.09
2023-01-19T04:11:44.101Z,97951.47
2023-01-19T04:12:46.015Z,97954.78
2023-01-19T04:13:47.786Z,97950.03
2023-01-19T04:14:49.322Z,97958.63
2023-01-19T04:15:50.913Z,97953.06
2023-01-19T04:16:52.489Z,97950.88
2023-01-19T04:17:54.462Z,97953.38
2023-01-19T04:18:55.964Z,97950.03
2023-01-19T04:19:57.499Z,97949.31
2023-01-19T04:21:03.421Z,97955.66
2023-01-19T04:22:04.913Z,97948.41
2023-01-19T04:23:06.447Z,97952.56
2023-01-19T04:24:10.182Z,97946.31
2023-01-19T04:25:11.702Z,97948.91
2023-01-19T04:26:13.559Z,97954.31
2023-01-19T04:27:15.238Z,97955.16
2023-01-19T04:28:16.735Z,97952.22
2023-01-19T04:29:18.231Z,97948.50
2023-01-19T04:30:20.102Z,97950.88
2023-01-19T04:31:21.723Z,97951.38
2023-01-19T04:32:23.405Z,97958.84
2023-01-19T04:33:26.615Z,97959.56
2023-01-19T04:34:28.105Z,97962.03
2023-01-19T04:35:29.625Z,97966.91
2023-01-19T04:36:31.269Z,97971.28
2023-01-19T04:37:32.832Z,97974.81
2023-01-19T04:38:34.622Z,97966.09
2023-01-19T04:39:36.324Z,97973.66
2023-01-19T04:40:37.839Z,97972.63
2023-01-19T04:41:39.321Z,97966.81
2023-01-19T04:42:44.669Z,97981.66
2023-01-19T04:43:46.315Z,97985.06
2023-01-19T04:44:47.810Z,97977.19
2023-01-19T04:45:49.696Z,97983.31
2023-01-19T04:46:51.213Z,97978.97
2023-01-19T04:47:52.742Z,97980.50
2023-01-19T04:48:54.263Z,97981.22
2023-01-19T04:49:55.751Z,97974.06
2023-01-19T04:50:57.214Z,97971.06
2023-01-19T04:51:58.803Z,97975.09
2023-01-19T04:53:00.637Z,97980.91
2023-01-19T04:54:02.947Z,97975.50
2023-01-19T04:55:06.576Z,97977.06
2023-01-19T04:56:08.055Z,97979.53
2023-01-19T04:57:09.562Z,97983.66
2023-01-19T04:58:11.030Z,97986.25
2023-01-19T04:59:13.011Z,97994.75
2023-01-19T05:00:15.188Z,97988.63
2023-01-19T05:01:16.800Z,97990.41
2023-01-19T05:02:18.459Z,97990.41
2023-01-19T05:03:20.299Z,97995.69
2023-01-19T05:04:22.550Z,97995.19
2023-01-19T05:05:24.113Z,98000.38
2023-01-19T05:06:25.598Z,97996.13
2023-01-19T05:07:27.493Z,97996.22
2023-01-19T05:08:28.976Z,97995.28
2023-01-19T05:09:30.509Z,97991.97
2023-01-19T05:10:32.005Z,97999.25
2023-01-19T05:11:33.599Z,97993.47
2023-01-19T05:12:35.280Z,97995.22
2023-01-19T05:13:36.958Z,97995.13
2023-01-19T05:14:38.496Z,97993.34
2023-01-19T05:15:39.991Z,97993.16
2023-01-19T05:16:41.545Z,97990.16
2023-01-19T05:17:43.091Z,97992.34
2023-01-19T05:18:44.636Z,97988.59
2023-01-19T05:19:46.174Z,97989.75
2023-01-19T05:20:47.714Z,97993.78
2023-01-19T05:21:49.543Z,97995.44
2023-01-19T05:22:52.571Z,97995.84
2023-01-19T05:23:54.101Z,97998.66
2023-01-19T05:24:55.694Z,98002.38
2023-01-19T05:25:57.347Z,97988.81
2023-01-19T05:26:59.225Z,97990.16
2023-01-19T05:28:00.772Z,97991.63
2023-01-19T05:29:02.278Z,97997.41
2023-01-19T05:30:04.220Z,97991.09
2023-01-19T05:31:05.906Z,97988.72
2023-01-19T05:32:07.484Z,97986.25
2023-01-19T05:33:09.044Z,97988.63
2023-01-19T05:34:11.991Z,97987.97
2023-01-19T05:35:13.636Z,97992.31
2023-01-19T05:36:15.171Z,97994.00
2023-01-19T05:37:16.745Z,97987.16
2023-01-19T05:38:23.346Z,97989.44
2023-01-19T05:39:30.894Z,97986.13
2023-01-19T05:40:32.420Z,97993.16
2023-01-19T05:41:34.095Z,97988.19
2023-01-19T05:42:36.307Z,97991.72
2023-01-19T05:43:37.819Z,97992.34
2023-01-19T05:44:39.407Z,97991.31
2023-01-19T05:45:41.154Z,97999.19
2023-01-19T05:46:42.792Z,97999.19
2023-01-19T05:47:44.327Z,97988.09
2023-01-19T05:48:45.726Z,98004.25
2023-01-19T05:49:47.278Z,97998.53
2023-01-19T05:50:48.841Z,97998.13
2023-01-19T05:51:50.446Z,98008.59
2023-01-19T05:52:52.282Z,98002.16
2023-01-19T05:53:53.764Z,98010.88
2023-01-19T05:54:55.292Z,98004.75
2023-01-19T05:56:05.461Z,98007.72
2023-01-19T05:57:07.142Z,98001.66
2023-01-19T05:58:08.686Z,97991.47
2023-01-19T05:59:10.735Z,97991.28
2023-01-19T06:00:13.002Z,97986.94
2023-01-19T06:01:14.813Z,97992.09
2023-01-19T06:02:16.393Z,97996.88
2023-01-19T06:03:18.084Z,98003.91
2023-01-19T06:04:20.620Z,98000.47
2023-01-19T06:05:22.234Z,98002.97
2023-01-19T06:06:23.738Z,98007.53
2023-01-19T06:07:25.951Z,98005.94
2023-01-19T06:08:28.793Z,98011.25
2023-01-19T06:09:30.299Z,98011.34
2023-01-19T06:10:31.695Z,98011.13
2023-01-19T06:11:33.446Z,98011.03
2023-01-19T06:12:35.221Z,98011.88
2023-01-19T06:13:36.760Z,98017.34
2023-01-19T06:14:38.242Z,98015.78
2023-01-19T06:15:39.612Z,98023.16
2023-01-19T06:16:41.276Z,98020.66
2023-01-19T06:17:42.824Z,98027.88
2023-01-19T06:18:44.320Z,98029.97
2023-01-19T06:19:45.870Z,98032.03
2023-01-19T06:20:47.501Z,98028.34
2023-01-19T06:21:49.801Z,98036.00
2023-01-19T06:22:51.383Z,98034.53
2023-01-19T06:23:52.875Z,98031.09
2023-01-19T06:24:54.421Z,98032.78
2023-01-19T06:25:55.940Z,98034.63
2023-01-19T06:26:57.496Z,98034.75
2023-01-19T06:27:59.091Z,98040.53
2023-01-19T06:29:00.609Z,98037.84
2023-01-19T06:30:03.109Z,98049.88
2023-01-19T06:31:05.088Z,98041.81
2023-01-19T06:32:06.883Z,98045.34
2023-01-19T06:33:08.456Z,98043.13
2023-01-19T06:34:10.060Z,98051.72
2023-01-19T06:35:11.568Z,98054.22
2023-01-19T06:36:13.164Z,98050.16
2023-01-19T06:37:14.767Z,98051.59
2023-01-19T06:38:17.161Z,98052.41
2023-01-19T06:39:18.649Z,98059.34
2023-01-19T06:40:20.188Z,98050.66
2023-01-19T06:41:21.692Z,98052.31
2023-01-19T06:42:23.187Z,98052.88
2023-01-19T06:43:26.119Z,98057.13
2023-01-19T06:44:27.623Z,98053.38
2023-01-19T06:45:29.182Z,98054.03
2023-01-19T06:46:31.119Z,98060.88
2023-01-19T06:47:32.650Z,98064.03
2023-01-19T06:48:34.225Z,98066.84
2023-01-19T06:49:35.780Z,98067.66
2023-01-19T06:50:37.273Z,98073.75
2023-01-19T06:51:38.658Z,98075.53
2023-01-19T06:52:40.222Z,98075.81
2023-01-19T06:53:41.697Z,98071.81
2023-01-19T06:54:46.329Z,98076.97
2023-01-19T06:55:48.088Z,98078.75
2023-01-19T06:56:49.596Z,98070.34
2023-01-19T06:57:58.518Z,98074.38
2023-01-19T06:59:00.230Z,98073.53
2023-01-19T07:00:02.190Z,98073.88
2023-01-19T07:01:07.789Z,98069.75
2023-01-19T07:02:27.814Z,98070.66
2023-01-19T07:03:30.529Z,98075.66
2023-01-19T07:04:32.130Z,98076.81
2023-01-19T07:05:35.919Z,98065.84
2023-01-19T07:06:37.461Z,98080.22
2023-01-19T07:07:38.941Z,98071.56
2023-01-19T07:08:40.465Z,98081.91
2023-01-19T07:09:42.037Z,98086.97
2023-01-19T07:11:26.361Z,98080.06
2023-01-19T07:12:05.426Z,98089.34
2023-01-19T07:13:06.977Z,98087.69
2023-01-19T07:14:08.471Z,98093.59
2023-01-19T07:15:10.035Z,98090.94
2023-01-19T07:16:12.782Z,98101.28
2023-01-19T07:17:14.323Z,98113.72
2023-01-19T07:18:15.874Z,98110.28
2023-01-19T07:19:17.415Z,98117.25
2023-01-19T07:20:19.062Z,98116.31
2023-01-19T07:21:21.346Z,98130.06
2023-01-19T07:22:22.900Z,98125.53
2023-01-19T07:23:24.434Z,98131.44
2023-01-19T07:24:25.980Z,98132.28
2023-01-19T07:25:27.497Z,98136.53
2023-01-19T07:26:29.073Z,98141.16
2023-01-19T07:27:30.990Z,98135.44
2023-01-19T07:28:32.543Z,98136.72
2023-01-19T07:29:34.082Z,98136.19
2023-01-19T07:30:35.715Z,98136.09
2023-01-19T07:31:37.384Z,98139.59
2023-01-19T07:32:38.917Z,98138.75
2023-01-19T07:33:40.399Z,98138.56
2023-01-19T07:34:41.911Z,98138.56
2023-01-19T07:35:48.061Z,98140.44
2023-01-19T07:36:49.523Z,98141.34
2023-01-19T07:37:51.267Z,98144.78
2023-01-19T07:38:52.780Z,98146.66
2023-01-19T07:39:54.292Z,98150.06
2023-01-19T07:41:03.040Z,98146.66
2023-01-19T07:42:04.669Z,98146.28
2023-01-19T07:43:06.546Z,98142.78
2023-01-19T07:44:08.031Z,98148.16
2023-01-19T07:45:09.943Z,98144.19
2023-01-19T07:46:11.580Z,98154.25
2023-01-19T07:47:13.127Z,98149.81
2023-01-19T07:48:14.943Z,98147.31
2023-01-19T07:49:16.784Z,98158.59
2023-01-19T07:50:19.025Z,98155.94
2023-01-19T07:51:20.509Z,98155.19
2023-01-19T07:52:22.045Z,98158.16
2023-01-19T07:53:23.573Z,98161.69
2023-01-19T07:54:25.101Z,98165.84
2023-01-19T07:55:26.753Z,98168.22
2023-01-19T07:56:28.360Z,98172.66
2023-01-19T07:57:29.931Z,98163.25
2023-01-19T07:58:31.685Z,98171.00
2023-01-19T07:59:33.227Z,98168.78
2023-01-19T08:00:36.390Z,98169.44
2023-01-19T08:01:38.066Z,98177.13
2023-01-19T08:02:39.833Z,98171.09
2023-01-19T08:03:41.373Z,98171.81
2023-01-19T08:04:42.964Z,98169.97
2023-01-19T08:05:45.186Z,98169.25
2023-01-19T08:06:46.993Z,98170.09
2023-01-19T08:07:48.527Z,98166.66
2023-01-19T08:08:50.674Z,98169.88
2023-01-19T08:09:52.231Z,98167.50
2023-01-19T08:10:53.770Z,98177.84
2023-01-19T08:11:55.261Z,98177.72
2023-01-19T08:12:57.745Z,98168.50
2023-01-19T08:13:59.712Z,98173.16
2023-01-19T08:15:01.227Z,98170.38
2023-01-19T08:16:02.806Z,98172.13
2023-01-19T08:17:04.396Z,98169.44
2023-01-19T08:18:05.965Z,98172.13
2023-01-19T08:19:07.481Z,98176.00
2023-01-19T08:20:09.624Z,98172.38
2023-01-19T08:21:11.135Z,98176.00
2023-01-19T08:22:12.656Z,98169.78
2023-01-19T08:23:14.228Z,98170.63
2023-01-19T08:24:21.459Z,98166.06
2023-01-19T08:25:23.052Z,98167.22
2023-01-19T08:26:34.896Z,98168.31
2023-01-19T08:27:36.465Z,98165.91
2023-01-19T08:28:38.021Z,98173.59
2023-01-19T08:29:39.530Z,98177.66
2023-01-19T08:30:41.821Z,98174.97
2023-01-19T08:31:43.446Z,98176.00
2023-01-19T08:32:45.001Z,98180.88
2023-01-19T08:33:46.778Z,98184.00
2023-01-19T08:34:48.324Z,98180.69
2023-01-19T08:35:52.521Z,98176.63
2023-01-19T08:36:54.058Z,98175.91
2023-01-19T08:37:55.609Z,98184.47
2023-01-19T08:38:57.437Z,98189.47
2023-01-19T08:39:58.969Z,98198.34
2023-01-19T08:41:00.479Z,98204.28
2023-01-19T08:42:02.022Z,98210.09
2023-01-19T08:43:09.980Z,98206.66
2023-01-19T08:44:11.502Z,98203.25
2023-01-19T08:45:13.048Z,98206.50
2023-01-19T08:46:15.116Z,98202.78
2023-01-19T08:47:16.729Z,98208.41
2023-01-19T08:48:20.796Z,98212.56
2023-01-19T08:49:22.376Z,98211.81
2023-01-19T08:50:24.084Z,98214.41
2023-01-19T08:51:25.580Z,98213.38
2023-01-19T08:52:27.066Z,98206.44
2023-01-19T08:53:28.612Z,98215.88
2023-01-19T08:54:30.148Z,98214.31
2023-01-19T08:55:31.706Z,98210.91
2023-01-19T08:56:33.269Z,98216.53
2023-01-19T08:57:34.775Z,98212.88
2023-01-19T08:58:36.275Z,98217.88
2023-01-19T08:59:37.788Z,98218.81
2023-01-19T09:00:39.814Z,98212.28
2023-01-19T09:01:41.411Z,98216.31
2023-01-19T09:02:43.172Z,98215.59
2023-01-19T09:03:44.722Z,98218.81
2023-01-19T09:04:46.197Z,98221.41
2023-01-19T09:05:47.963Z,98223.88
2023-01-19T09:06:49.530Z,98222.22
2023-01-19T09:07:51.002Z,98222.16
2023-01-19T09:08:52.373Z,98225.75
2023-01-19T09:09:53.948Z,98216.59
2023-01-19T09:10:55.445Z,98219.28
2023-01-19T09:11:56.943Z,98229.34
2023-01-19T09:12:58.469Z,98232.06
2023-01-19T09:13:59.954Z,98228.44
2023-01-19T09:15:01.542Z,98227.22
2023-01-19T09:16:03.758Z,98229.78
2023-01-19T09:17:05.299Z,98217.88
2023-01-19T09:18:10.627Z,98224.00
2023-01-19T09:19:12.218Z,98217.34
2023-01-19T09:20:13.764Z,98217.53
2023-01-19T09:21:15.876Z,98213.56
2023-01-19T09:22:17.446Z,98214.41
2023-01-19T09:23:20.254Z,98216.81
2023-01-19T09:24:21.890Z,98212.16
2023-01-19T09:25:23.466Z,98210.22
2023-01-19T09:26:24.987Z,98208.47
2023-01-19T09:27:26.507Z,98198.28
2023-01-19T09:28:29.304Z,98195.50
2023-01-19T09:29:30.889Z,98191.16
2023-01-19T09:30:32.700Z,98185.25
2023-01-19T09:31:34.324Z,98185.16
2023-01-19T09:32:35.854Z,98184.66
2023-01-19T09:33:37.376Z,98185.19
2023-01-19T09:34:38.842Z,98180.84
2023-01-19T09:35:41.317Z,98177.31
2023-01-19T09:36:42.803Z,98180.44
2023-01-19T09:37:47.741Z,98185.31
2023-01-19T09:38:49.258Z,98194.75
2023-01-19T09:39:50.826Z,98179.28
2023-01-19T09:40:56.490Z,98178.03
2023-01-19T09:42:21.228Z,98179.91
2023-01-19T09:43:35.190Z,98177.84
2023-01-19T09:44:37.146Z,98179.41
2023-01-19T09:45:57.739Z,98184.47
2023-01-19T09:47:01.745Z,98189.78
2023-01-19T09:48:34.953Z,98186.34
2023-01-19T09:49:43.625Z,98194.03
2023-01-19T09:50:45.204Z,98199.19
2023-01-19T09:51:50.476Z,98201.50
2023-01-19T09:52:57.580Z,98193.44
2023-01-19T09:54:04.948Z,98205.16
2023-01-19T09:55:22.009Z,98208.28
2023-01-19T09:56:24.549Z,98200.50
2023-01-19T09:57:27.235Z,98207.75
2023-01-19T09:58:28.863Z,98201.94
2023-01-19T09:59:33.326Z,98203.59
2023-01-19T10:00:34.981Z,98211.88
2023-01-19T10:01:48.656Z,98215.63
2023-01-19T10:02:53.051Z,98214.06
2023-01-19T10:04:25.589Z,98212.09
2023-01-19T10:05:30.735Z,98209.13
2023-01-19T10:06:32.381Z,98199.78
2023-01-19T10:07:55.227Z,98198.94
2023-01-19T10:09:23.817Z,98200.50
2023-01-19T10:10:27.959Z,98206.41
2023-01-19T10:12:14.255Z,98205.25
2023-01-19T10:13:47.750Z,98198.41
2023-01-19T10:14:54.872Z,98197.69
2023-01-19T10:16:01.944Z,98193.44
2023-01-19T10:17:12.452Z,98187.97
2023-01-19T10:18:25.054Z,98199.34
2023-01-19T10:19:38.032Z,98193.00
2023-01-19T10:20:45.526Z,98194.97
2023-01-19T10:21:50.817Z,98191.34
2023-01-19T10:22:52.316Z,98191.13
2023-01-19T10:24:20.952Z,98192.78
2023-01-19T10:25:23.574Z,98187.69
2023-01-19T10:26:47.834Z,98195.09
2023-01-19T10:27:52.315Z,98188.78
2023-01-19T10:29:10.506Z,98185.97
2023-01-19T10:30:29.543Z,98190.84
2023-01-19T10:31:33.997Z,98184.13
2023-01-19T10:32:36.742Z,98184.31
2023-01-19T10:33:39.060Z,98183.19
2023-01-19T10:34:40.685Z,98184.94
2023-01-19T10:35:42.414Z,98179.25
2023-01-19T10:36:46.702Z,98181.13
2023-01-19T10:38:00.884Z,98179.25
2023-01-19T10:39:05.116Z,98182.34
2023-01-19T10:40:09.255Z,98178.41
2023-01-19T10:41:43.217Z,98173.13
2023-01-19T10:42:44.780Z,98175.22
2023-01-19T10:43:47.103Z,98177.72
2023-01-19T10:44:49.682Z,98172.06
2023-01-19T10:45:51.359Z,98172.91
2023-01-19T10:46:55.587Z,98169.47
2023-01-19T10:48:07.150Z,98172.06
2023-01-19T10:49:44.368Z,98165.78
2023-01-19T10:50:45.975Z,98170.03
2023-01-19T10:51:47.874Z,98160.91
2023-01-19T10:52:55.357Z,98164.00
2023-01-19T10:54:12.486Z,98155.50
2023-01-19T10:55:28.800Z,98157.34
2023-01-19T10:56:38.318Z,98163.34
2023-01-19T10:57:42.339Z,98160.03
2023-01-19T10:58:44.001Z,98156.94
2023-01-19T10:59:49.292Z,98154.06
2023-01-19T11:00:50.884Z,98156.94
2023-01-19T11:02:23.194Z,98159.31
2023-01-19T11:03:31.889Z,98159.63
2023-01-19T11:04:33.602Z,98170.72
2023-01-19T11:05:48.470Z,98159.19
2023-01-19T11:06:52.615Z,98160.75
2023-01-19T11:07:54.172Z,98165.56
2023-01-19T11:09:20.248Z,98166.88
2023-01-19T11:10:25.105Z,98162.75
2023-01-19T11:11:26.704Z,98165.88
2023-01-19T11:12:28.226Z,98164.84
2023-01-19T11:13:30.466Z,98158.09
2023-01-19T11:14:32.067Z,98160.97
2023-01-19T11:15:43.645Z,98158.09
2023-01-19T11:16:48.637Z,98158.56
2023-01-19T11:17:50.737Z,98155.78
2023-01-19T11:18:55.355Z,98157.16
2023-01-19T11:20:02.200Z,98155.28
2023-01-19T11:21:07.675Z,98151.56
2023-01-19T11:22:09.120Z,98150.31
2023-01-19T11:23:28.110Z,98147.22
2023-01-19T11:24:30.209Z,98151.75
2023-01-19T11:25:34.016Z,98147.94
2023-01-19T11:26:49.226Z,98152.91
2023-01-19T11:27:51.760Z,98155.63
2023-01-19T11:28:56.258Z,98152.91
2023-01-19T11:30:02.894Z,98144.91
2023-01-19T11:31:27.583Z,98154.25
2023-01-19T11:32:29.236Z,98148.75
2023-01-19T11:33:41.790Z,98145.13
2023-01-19T11:34:44.519Z,98146.91
2023-01-19T11:35:46.213Z,98151.03
2023-01-19T11:36:57.468Z,98150.53
2023-01-19T11:38:20.344Z,98154.06
2023-01-19T11:39:27.674Z,98153.84
2023-01-19T11:40:29.483Z,98156.22
2023-01-19T11:41:34.936Z,98158.63
2023-01-19T11:42:36.669Z,98155.09
2023-01-19T11:43:48.631Z,98159.75
2023-01-19T11:45:11.238Z,98155.28
2023-01-19T11:46:13.032Z,98154.25
2023-01-19T11:47:24.737Z,98153.84
2023-01-19T11:48:39.347Z,98147.59
2023-01-19T11:49:58.511Z,98151.13
2023-01-19T11:51:03.680Z,98155.97
2023-01-19T11:52:16.365Z,98152.34
2023-01-19T11:53:32.242Z,98151.34
2023-01-19T11:54:41.532Z,98151.63
2023-01-19T11:55:50.571Z,98150.50
2023-01-19T11:56:53.814Z,98156.09
2023-01-19T11:57:55.373Z,98155.25
2023-01-19T11:58:57.149Z,98165.59
2023-01-19T12:00:02.428Z,98169.78
2023-01-19T12:01:20.170Z,98164.59
2023-01-19T12:02:30.498Z,98162.34
2023-01-19T12:03:37.079Z,98156.09
2023-01-19T12:04:41.535Z,98158.91
2023-01-19T12:05:48.336Z,98162.50
2023-01-19T12:06:53.926Z,98162.50
2023-01-19T12:07:57.573Z,98159.09
2023-01-19T12:09:22.154Z,98161.91
2023-01-19T12:10:31.499Z,98166.47
2023-01-19T12:11:38.869Z,98159.31
2023-01-19T12:12:41.299Z,98168.94
2023-01-19T12:13:44.280Z,98160.13
2023-01-19T12:15:01.466Z,98160.69
2023-01-19T12:16:13.196Z,98159.75
2023-01-19T12:17:20.264Z,98157.53
2023-01-19T12:18:24.606Z,98160.97
2023-01-19T12:19:39.943Z,98155.78
2023-01-19T12:20:49.371Z,98149.97
2023-01-19T12:21:51.227Z,98148.19
2023-01-19T12:23:03.201Z,98146.75
2023-01-19T12:24:18.557Z,98150.06
2023-01-19T12:25:24.699Z,98152.88
2023-01-19T12:26:35.238Z,98148.31
2023-01-19T12:27:44.589Z,98154.13
2023-01-19T12:28:48.385Z,98151.53
2023-01-19T12:29:50.443Z,98150.28
2023-01-19T12:30:52.365Z,98155.25
2023-01-19T12:32:15.652Z,98154.13
2023-01-19T12:33:32.375Z,98146.25
2023-01-19T12:35:00.050Z,98149.88
2023-01-19T12:36:16.847Z,98148.31
2023-01-19T12:37:42.686Z,98158.97